Time;durP1;ratioP1;P1;durP2;ratioP2;P2;SDS_P1;SDS_P2;PMS_P1;PMS_P2;Temp;Humidity;BMP_temperature;BMP_pressure;BME280_temperature;BME280_humidity;BME280_pressure;Samples;Min_cycle;Max_cycle;Signal;HPM_P1;HPM_P2
2021/07/09 00:01:44;;;;;;;6.32;4.88;;;;;;;26.41;45.56;101889.00;4995322;28;20103;-61
2021/07/09 00:04:10;;;;;;;7.65;5.05;;;;;;;26.44;45.62;101899.56;4995465;28;20471;-62
2021/07/09 00:06:36;;;;;;;7.22;5.60;;;;;;;26.39;46.28;101880.09;4995521;28;20072;-61
2021/07/09 00:09:05;;;;;;;10.65;5.10;;;;;;;26.43;45.84;101889.66;4995616;28;20064;-62
2021/07/09 00:11:31;;;;;;;10.13;5.28;;;;;;;26.38;45.89;101881.19;4995189;28;20058;-62
2021/07/09 00:13:57;;;;;;;8.93;5.15;;;;;;;26.39;45.97;101885.59;4995303;28;20033;-62
2021/07/09 00:16:22;;;;;;;8.70;5.47;;;;;;;26.39;46.34;101885.59;4995536;28;20027;-61
2021/07/09 00:18:48;;;;;;;7.80;4.53;;;;;;;26.38;46.36;101883.94;4994988;28;20022;-62
2021/07/09 00:21:14;;;;;;;8.70;5.78;;;;;;;26.35;46.07;101881.59;4995301;28;20121;-62
2021/07/09 00:23:40;;;;;;;8.02;5.53;;;;;;;26.34;46.46;101878.00;4993467;28;20030;-62
2021/07/09 00:26:06;;;;;;;10.20;5.18;;;;;;;26.33;46.60;101884.53;4994876;28;20034;-61
2021/07/09 00:28:31;;;;;;;10.57;5.82;;;;;;;26.31;46.55;101878.41;4994562;28;20057;-62
2021/07/09 00:30:57;;;;;;;8.30;5.20;;;;;;;26.31;46.75;101885.78;4994216;28;20022;-61
2021/07/09 00:33:23;;;;;;;7.65;5.03;;;;;;;26.26;46.63;101880.06;4995346;28;20030;-61
2021/07/09 00:35:48;;;;;;;8.32;6.00;;;;;;;26.24;46.10;101877.53;4994318;28;20078;-61
2021/07/09 00:38:14;;;;;;;7.95;5.43;;;;;;;26.26;46.42;101880.06;4994739;28;20026;-61
2021/07/09 00:40:40;;;;;;;13.02;4.90;;;;;;;26.25;46.74;101884.72;4994897;28;20057;-62
2021/07/09 00:43:05;;;;;;;6.78;5.13;;;;;;;26.22;46.62;101878.78;4994749;28;20023;-61
2021/07/09 00:45:31;;;;;;;8.80;5.60;;;;;;;26.21;46.48;101877.09;4995071;28;20050;-61
2021/07/09 00:47:56;;;;;;;8.23;5.22;;;;;;;26.20;46.69;101880.91;4994341;28;20046;-62
2021/07/09 00:50:21;;;;;;;7.93;4.57;;;;;;;26.19;46.75;101879.19;4994726;28;20058;-61
2021/07/09 00:52:47;;;;;;;9.52;5.07;;;;;;;26.14;46.43;101870.72;4995229;28;20030;-61
2021/07/09 00:55:13;;;;;;;8.10;5.78;;;;;;;26.16;46.50;101880.44;4994492;28;20053;-61
2021/07/09 00:57:40;;;;;;;7.95;4.35;;;;;;;26.12;46.49;101876.41;4993494;28;20073;-61
2021/07/09 01:00:08;;;;;;;8.48;5.28;;;;;;;26.13;46.48;101888.25;4993512;28;20530;-62
2021/07/09 01:02:33;;;;;;;8.13;5.25;;;;;;;26.10;46.25;101880.41;4994685;28;20426;-61
2021/07/09 01:04:59;;;;;;;9.55;5.45;;;;;;;26.10;46.52;101885.91;4994498;28;20054;-61
2021/07/09 01:07:25;;;;;;;8.20;5.45;;;;;;;26.05;46.53;101883.75;4994613;28;20029;-62
2021/07/09 01:09:51;;;;;;;6.32;5.15;;;;;;;26.05;46.43;101889.25;4994824;28;20034;-61
2021/07/09 01:12:19;;;;;;;9.38;6.05;;;;;;;26.03;46.57;101886.72;4994571;28;20101;-61
2021/07/09 01:14:45;;;;;;;7.22;5.18;;;;;;;26.03;46.68;101885.88;4994737;28;20034;-62
2021/07/09 01:17:11;;;;;;;9.65;5.82;;;;;;;25.99;46.61;101882.69;4994522;28;20022;-61
2021/07/09 01:19:36;;;;;;;7.65;5.40;;;;;;;26.01;46.52;101883.34;4993063;28;20023;-62
2021/07/09 01:22:02;;;;;;;6.28;4.50;;;;;;;26.01;46.92;101886.09;4994241;28;20049;-61
2021/07/09 01:24:27;;;;;;;7.28;5.30;;;;;;;25.99;46.37;101874.44;4993031;28;20026;-61
2021/07/09 01:26:53;;;;;;;5.82;4.68;;;;;;;25.98;46.56;101878.25;4994124;28;20030;-61
2021/07/09 01:29:18;;;;;;;9.02;5.30;;;;;;;25.97;46.99;101879.28;4992945;28;20106;-61
2021/07/09 01:31:44;;;;;;;8.80;5.63;;;;;;;25.96;46.96;101877.59;4995684;28;20050;-61
2021/07/09 01:34:09;;;;;;;7.07;5.30;;;;;;;25.94;46.85;101876.09;4998396;28;20140;-62
2021/07/09 01:36:34;;;;;;;7.13;5.45;;;;;;;25.94;46.87;101878.84;4998022;28;20052;-61
2021/07/09 01:39:00;;;;;;;9.18;5.15;;;;;;;25.95;46.64;101884.16;4997978;28;20037;-61
2021/07/09 01:41:25;;;;;;;9.45;5.70;;;;;;;25.95;46.67;101877.81;4998293;28;20030;-61
2021/07/09 01:43:51;;;;;;;7.50;5.45;;;;;;;25.94;46.82;101879.69;4998305;28;20471;-62
2021/07/09 01:46:16;;;;;;;8.05;4.82;;;;;;;25.92;47.30;101876.31;4996559;28;20364;-62
2021/07/09 01:48:42;;;;;;;7.75;4.72;;;;;;;25.90;46.69;101877.56;4997953;28;20122;-62
2021/07/09 01:51:07;;;;;;;8.20;4.90;;;;;;;25.91;46.65;101879.25;4997289;28;20026;-61
2021/07/09 01:53:33;;;;;;;6.65;4.63;;;;;;;25.89;46.80;101884.97;4997788;28;20058;-61
2021/07/09 01:55:58;;;;;;;7.93;5.88;;;;;;;25.88;46.58;101882.44;4997938;28;20026;-61
2021/07/09 01:58:24;;;;;;;6.68;4.45;;;;;;;25.87;47.04;101881.59;4997891;28;20027;-62
2021/07/09 02:00:50;;;;;;;9.45;5.38;;;;;;;25.85;46.54;101878.16;4997857;28;20033;-62
2021/07/09 02:03:15;;;;;;;10.40;4.30;;;;;;;25.85;46.57;101878.16;4997789;28;20041;-61
2021/07/09 02:05:40;;;;;;;7.65;4.90;;;;;;;25.83;46.58;101880.28;4996729;28;20117;-62
2021/07/09 02:08:06;;;;;;;7.93;4.70;;;;;;;25.82;47.06;101878.59;4997725;28;20085;-61
2021/07/09 02:10:35;;;;;;;6.78;4.72;;;;;;;25.78;46.45;101865.47;4998030;28;20485;-61
2021/07/09 02:13:01;;;;;;;7.78;4.70;;;;;;;25.80;46.92;101877.94;4997683;28;20060;-61
2021/07/09 02:15:30;;;;;;;5.47;4.38;;;;;;;25.80;46.63;101877.09;4997877;28;20045;-61
2021/07/09 02:17:55;;;;;;;7.15;4.95;;;;;;;25.74;46.55;101862.28;4997766;28;20451;-61
2021/07/09 02:20:23;;;;;;;5.82;4.30;;;;;;;25.77;46.75;101881.09;4997324;28;20033;-61
2021/07/09 02:22:48;;;;;;;6.68;4.80;;;;;;;25.69;46.52;101867.53;4997780;28;20490;-62
2021/07/09 02:25:14;;;;;;;7.60;4.30;;;;;;;25.75;46.82;101885.09;4997075;28;20114;-62
2021/07/09 02:27:42;;;;;;;9.63;4.80;;;;;;;25.73;46.41;101879.81;4996214;28;20097;-61
2021/07/09 02:30:10;;;;;;;6.55;4.43;;;;;;;25.72;46.59;101878.09;4995921;28;20391;-61
2021/07/09 02:32:36;;;;;;;6.75;4.43;;;;;;;25.71;46.88;101868.16;4996966;28;20049;-61
2021/07/09 02:35:03;;;;;;;8.45;4.55;;;;;;;25.67;46.80;101858.66;4997279;28;20022;-62
2021/07/09 02:37:29;;;;;;;7.05;4.65;;;;;;;25.69;46.08;101866.69;4996827;28;20127;-61
2021/07/09 02:39:54;;;;;;;6.47;4.35;;;;;;;25.67;46.38;101875.13;4996869;28;20026;-61
2021/07/09 02:42:19;;;;;;;7.60;4.35;;;;;;;25.66;46.55;101873.44;4995265;28;20042;-61
2021/07/09 02:44:45;;;;;;;6.32;4.70;;;;;;;25.65;46.67;101871.75;4996941;28;20464;-61
2021/07/09 02:47:11;;;;;;;6.57;4.55;;;;;;;25.65;46.56;101868.16;4996714;28;20104;-62
2021/07/09 02:49:36;;;;;;;9.82;5.03;;;;;;;25.60;46.80;101868.75;4996580;28;20057;-61
2021/07/09 02:52:02;;;;;;;7.68;4.63;;;;;;;25.59;46.31;101872.56;4997126;28;20026;-62
2021/07/09 02:54:28;;;;;;;8.55;4.43;;;;;;;25.62;45.97;101877.63;4996813;28;20491;-61
2021/07/09 02:56:53;;;;;;;8.52;5.15;;;;;;;25.60;46.35;101870.66;4996880;28;20034;-61
2021/07/09 02:59:18;;;;;;;8.05;4.95;;;;;;;25.60;46.13;101867.91;4997083;28;20371;-62
2021/07/09 03:01:44;;;;;;;9.02;4.97;;;;;;;25.59;46.19;101866.22;4996503;28;20116;-62
2021/07/09 03:04:11;;;;;;;9.98;5.20;;;;;;;25.58;46.69;101870.84;4996429;28;20027;-62
2021/07/09 03:06:37;;;;;;;7.78;4.43;;;;;;;25.57;46.02;101871.06;4996677;28;20037;-61
2021/07/09 03:09:04;;;;;;;10.50;5.97;;;;;;;25.56;46.62;101872.09;4996969;28;20367;-62
2021/07/09 03:11:30;;;;;;;9.98;5.35;;;;;;;25.55;46.08;101870.41;4996713;28;20026;-61
2021/07/09 03:13:55;;;;;;;7.57;4.43;;;;;;;25.53;46.44;101867.88;4996652;28;20019;-61
2021/07/09 03:16:21;;;;;;;9.40;4.28;;;;;;;25.51;46.07;101869.97;4996560;28;20459;-62
2021/07/09 03:18:46;;;;;;;6.82;4.55;;;;;;;25.51;46.04;101869.97;4996456;28;20041;-61
2021/07/09 03:21:12;;;;;;;8.63;4.72;;;;;;;25.50;46.30;101868.28;4996774;28;20085;-61
2021/07/09 03:23:38;;;;;;;12.75;5.13;;;;;;;25.49;45.85;101863.81;4996610;28;20030;-62
2021/07/09 03:26:03;;;;;;;7.90;4.55;;;;;;;25.46;46.13;101866.97;4996054;28;20100;-61
2021/07/09 03:28:29;;;;;;;6.40;4.38;;;;;;;25.49;45.95;101863.81;4996268;28;20053;-62
2021/07/09 03:30:54;;;;;;;11.23;5.10;;;;;;;25.40;45.89;101852.13;4995891;28;20378;-62
2021/07/09 03:33:19;;;;;;;14.32;5.63;;;;;;;25.47;46.25;101868.66;4996412;28;20030;-62
2021/07/09 03:35:45;;;;;;;11.05;4.97;;;;;;;25.46;46.08;101866.97;4995994;28;20418;-61
2021/07/09 03:38:11;;;;;;;8.48;4.30;;;;;;;25.41;45.72;101859.31;4996039;28;20049;-62
2021/07/09 03:40:36;;;;;;;7.35;4.78;;;;;;;25.43;46.25;101864.63;4995966;28;20034;-61
2021/07/09 03:43:02;;;;;;;7.80;4.72;;;;;;;25.41;46.35;101858.47;4995978;28;20085;-61
2021/07/09 03:45:27;;;;;;;6.88;4.53;;;;;;;25.40;45.79;101863.09;4995579;28;20057;-62
2021/07/09 03:47:53;;;;;;;9.00;4.53;;;;;;;25.38;45.78;101859.72;4995497;28;20450;-62
2021/07/09 03:50:18;;;;;;;10.77;5.05;;;;;;;25.38;45.75;101861.59;4996235;28;20018;-61
2021/07/09 03:52:43;;;;;;;10.20;4.72;;;;;;;25.36;45.72;101872.78;4995747;28;20030;-62
2021/07/09 03:55:10;;;;;;;8.50;4.72;;;;;;;25.34;46.04;101865.81;4994508;28;20030;-62
2021/07/09 03:57:35;;;;;;;10.52;4.60;;;;;;;25.34;46.20;101874.91;4995604;28;20475;-61
2021/07/09 04:00:01;;;;;;;9.20;5.28;;;;;;;25.34;45.89;101879.53;4995639;28;20041;-62
2021/07/09 04:02:26;;;;;;;8.68;5.18;;;;;;;25.33;45.94;101875.06;4995885;28;20070;-61
2021/07/09 04:04:51;;;;;;;8.23;5.38;;;;;;;25.33;46.19;101877.81;4995763;28;20030;-61
2021/07/09 04:07:17;;;;;;;9.13;4.60;;;;;;;25.33;46.18;101880.56;4995406;28;20030;-61
2021/07/09 04:09:42;;;;;;;10.38;5.07;;;;;;;25.33;46.38;101886.06;4995251;28;20379;-61
2021/07/09 04:12:07;;;;;;;9.20;5.05;;;;;;;25.32;46.02;101887.13;4995450;28;20030;-61
2021/07/09 04:14:33;;;;;;;11.55;6.05;;;;;;;25.31;45.90;101886.28;4995406;28;20014;-61
2021/07/09 04:16:58;;;;;;;10.68;5.97;;;;;;;25.33;46.10;101888.78;4995363;28;20030;-61
2021/07/09 04:19:24;;;;;;;9.50;5.45;;;;;;;25.31;46.25;101886.28;4995229;28;20597;-61
2021/07/09 04:21:49;;;;;;;9.15;5.20;;;;;;;25.32;46.26;101884.38;4994986;28;20041;-62
2021/07/09 04:24:15;;;;;;;9.48;4.47;;;;;;;25.31;46.12;101890.91;4995128;28;20486;-62
2021/07/09 04:26:40;;;;;;;8.45;4.43;;;;;;;25.32;46.20;101903.59;4994864;28;20022;-61
2021/07/09 04:29:05;;;;;;;11.23;5.10;;;;;;;25.32;46.20;101893.44;4995493;28;20030;-61
2021/07/09 04:31:31;;;;;;;8.82;5.20;;;;;;;25.30;46.46;101894.69;4993722;28;20048;-61
2021/07/09 04:33:56;;;;;;;12.73;5.18;;;;;;;25.33;46.00;101899.78;4995205;28;20049;-62
2021/07/09 04:36:21;;;;;;;10.25;5.15;;;;;;;25.34;45.76;101896.00;4994817;28;20037;-62
2021/07/09 04:38:47;;;;;;;9.77;4.10;;;;;;;25.34;46.42;101896.00;4995033;28;20455;-61
2021/07/09 04:41:12;;;;;;;8.35;5.13;;;;;;;25.35;46.33;101903.16;4994981;28;20427;-62
2021/07/09 04:43:39;;;;;;;9.73;4.47;;;;;;;25.31;46.04;101893.66;4994853;28;20034;-61
2021/07/09 04:46:05;;;;;;;10.00;4.65;;;;;;;25.31;45.94;101891.75;4994559;28;20113;-62
2021/07/09 04:48:31;;;;;;;6.57;4.15;;;;;;;25.36;46.31;101904.88;4994476;28;20077;-61
2021/07/09 04:50:56;;;;;;;11.02;4.95;;;;;;;25.37;46.15;101906.56;4994576;28;20437;-61
2021/07/09 04:53:22;;;;;;;8.00;4.70;;;;;;;25.37;45.82;101901.09;4994843;28;20026;-62
2021/07/09 04:55:47;;;;;;;10.80;5.25;;;;;;;25.38;45.86;101905.50;4994592;28;20037;-61
2021/07/09 04:58:13;;;;;;;7.47;4.55;;;;;;;25.40;45.60;101906.16;4994630;28;20046;-62
2021/07/09 05:00:38;;;;;;;11.05;5.47;;;;;;;25.39;45.75;101898.97;4994635;28;20034;-61
2021/07/09 05:03:03;;;;;;;9.57;4.90;;;;;;;25.39;46.00;101896.22;4994953;28;20034;-62
2021/07/09 05:05:29;;;;;;;8.82;4.90;;;;;;;25.43;45.61;101900.28;4994762;28;20352;-61
2021/07/09 05:07:54;;;;;;;8.55;4.82;;;;;;;25.46;45.91;101900.72;4993054;28;20022;-61
2021/07/09 05:10:19;;;;;;;8.25;4.72;;;;;;;25.47;45.90;101896.09;4994924;28;20120;-61
2021/07/09 05:12:45;;;;;;;9.50;5.45;;;;;;;25.51;45.72;101902.91;4993124;28;20081;-61
2021/07/09 05:15:11;;;;;;;10.80;5.25;;;;;;;25.53;45.69;101906.28;4994446;28;20027;-61
2021/07/09 05:17:36;;;;;;;8.88;5.22;;;;;;;25.53;45.31;101895.31;4992974;28;20125;-61
2021/07/09 05:20:03;;;;;;;9.13;5.13;;;;;;;25.60;45.72;101907.16;4994705;28;20034;-61
2021/07/09 05:22:28;;;;;;;9.73;5.18;;;;;;;25.64;45.49;101900.25;4994476;28;20034;-61
2021/07/09 05:24:55;;;;;;;9.35;4.80;;;;;;;25.68;45.19;101898.78;4994287;28;20133;-61
2021/07/09 05:27:24;;;;;;;9.35;4.45;;;;;;;25.73;45.42;101900.94;4994320;28;20026;-61
2021/07/09 05:29:50;;;;;;;11.32;5.50;;;;;;;25.77;45.15;101902.19;4994428;28;20053;-61
2021/07/09 05:32:22;;;;;;;9.85;4.97;;;;;;;25.82;45.30;101906.06;4992873;28;20093;-61
2021/07/09 05:34:48;;;;;;;9.52;4.60;;;;;;;25.87;45.21;101906.28;4994320;28;20023;-62
2021/07/09 05:37:14;;;;;;;11.23;5.22;;;;;;;25.92;45.29;101909.28;4992836;28;20113;-61
2021/07/09 05:39:39;;;;;;;7.57;4.53;;;;;;;25.98;44.83;101910.34;4993140;28;20471;-60
2021/07/09 05:42:05;;;;;;;9.98;4.40;;;;;;;26.04;44.61;101921.38;4994417;28;20062;-61
2021/07/09 05:44:30;;;;;;;10.10;4.50;;;;;;;26.09;44.51;101917.16;4994165;28;20109;-61
2021/07/09 05:46:57;;;;;;;9.23;4.78;;;;;;;26.15;44.60;101919.13;4994200;28;20399;-61
2021/07/09 05:49:22;;;;;;;7.88;4.80;;;;;;;26.21;44.21;101929.31;4993358;28;20133;-61
2021/07/09 05:51:48;;;;;;;13.50;6.03;;;;;;;26.25;44.03;101927.81;4994259;28;20069;-61
2021/07/09 05:54:14;;;;;;;7.00;4.43;;;;;;;26.27;44.48;101920.25;4993818;28;20050;-61
2021/07/09 05:56:39;;;;;;;8.35;4.47;;;;;;;26.32;44.15;101929.56;4992973;28;20025;-61
2021/07/09 05:59:05;;;;;;;7.40;5.00;;;;;;;26.36;43.98;101922.59;4994025;28;20547;-61
2021/07/09 06:01:30;;;;;;;6.60;4.15;;;;;;;26.41;44.65;101932.97;4994312;28;20038;-61
2021/07/09 06:03:55;;;;;;;7.30;4.30;;;;;;;26.44;44.08;101930.66;4994005;28;20137;-61
2021/07/09 06:06:21;;;;;;;9.32;4.32;;;;;;;26.44;43.79;101932.53;4993789;28;20027;-62
2021/07/09 06:08:46;;;;;;;7.05;4.28;;;;;;;26.40;44.19;101926.63;4993963;28;20135;-62
2021/07/09 06:11:12;;;;;;;6.95;3.88;;;;;;;26.37;43.89;101921.53;4993662;28;20372;-62
2021/07/09 06:13:37;;;;;;;7.25;4.57;;;;;;;26.36;44.33;101935.47;4994138;28;20034;-63
2021/07/09 06:16:03;;;;;;;7.80;4.20;;;;;;;26.36;44.24;101935.47;4993946;28;20049;-61
2021/07/09 06:18:28;;;;;;;10.15;3.72;;;;;;;26.34;44.48;101932.94;4995919;28;20057;-61
2021/07/09 06:20:54;;;;;;;6.03;3.65;;;;;;;26.33;44.23;101928.50;4997344;28;20204;-61
2021/07/09 06:23:19;;;;;;;7.68;3.67;;;;;;;26.33;44.05;101944.97;4997307;28;20475;-61
2021/07/09 06:25:45;;;;;;;9.10;4.32;;;;;;;26.34;43.95;101940.34;4997331;28;20029;-61
2021/07/09 06:28:10;;;;;;;7.80;3.65;;;;;;;26.36;44.10;101951.97;4997051;28;20040;-62
2021/07/09 06:30:35;;;;;;;8.45;3.67;;;;;;;26.36;44.05;101951.97;4979572;28;20459;-61
2021/07/09 06:33:01;;;;;;;5.50;3.33;;;;;;;26.38;44.03;101949.88;4997253;28;20110;-61
2021/07/09 06:35:29;;;;;;;6.30;3.60;;;;;;;26.40;43.87;101950.53;4996930;28;20022;-61
2021/07/09 06:37:57;;;;;;;6.57;3.78;;;;;;;26.39;43.69;101955.16;4997164;28;20097;-61
2021/07/09 06:40:23;;;;;;;6.55;4.32;;;;;;;26.42;43.73;101956.66;4995712;28;20026;-61
2021/07/09 06:42:49;;;;;;;7.90;3.97;;;;;;;26.42;43.85;101962.16;4996670;28;20038;-61
2021/07/09 06:45:15;;;;;;;7.82;3.60;;;;;;;26.37;43.81;101951.78;4996972;28;20085;-61
2021/07/09 06:47:40;;;;;;;5.93;3.08;;;;;;;26.39;43.32;101952.41;4997374;28;20357;-61
2021/07/09 06:50:06;;;;;;;6.68;3.10;;;;;;;26.39;43.72;101948.81;4991446;28;20074;-61
2021/07/09 06:52:31;;;;;;;7.28;3.30;;;;;;;26.41;43.85;101947.53;4997003;28;20037;-61
2021/07/09 06:54:56;;;;;;;5.93;3.53;;;;;;;26.42;43.43;101941.00;4996863;28;20038;-61
2021/07/09 06:57:22;;;;;;;7.07;3.45;;;;;;;26.42;44.03;101951.16;4996927;28;20034;-62
2021/07/09 06:59:47;;;;;;;5.85;3.13;;;;;;;26.43;44.05;101952.84;4996875;28;20455;-61
2021/07/09 07:02:13;;;;;;;6.57;3.30;;;;;;;26.45;43.87;101950.75;4997470;28;20096;-61
2021/07/09 07:04:39;;;;;;;6.38;3.47;;;;;;;26.43;43.85;101955.59;4996606;28;20058;-61
2021/07/09 07:07:04;;;;;;;7.22;3.72;;;;;;;26.47;44.16;101959.63;4996845;28;20533;-61
2021/07/09 07:09:32;;;;;;;5.95;3.85;;;;;;;26.49;44.10;101958.34;4996645;28;20026;-61
2021/07/09 07:12:01;;;;;;;7.63;4.18;;;;;;;26.53;44.16;101965.16;4996293;28;20026;-61
2021/07/09 07:14:30;;;;;;;8.07;3.88;;;;;;;26.57;44.01;101960.09;4996522;28;20101;-61
2021/07/09 07:16:55;;;;;;;8.13;4.45;;;;;;;26.60;44.23;101960.50;4996260;28;20475;-61
2021/07/09 07:19:21;;;;;;;10.57;4.78;;;;;;;26.65;44.48;101968.16;4996317;28;20030;-61
2021/07/09 07:21:46;;;;;;;10.57;5.00;;;;;;;26.67;44.54;101957.78;4996384;28;20057;-61
2021/07/09 07:24:11;;;;;;;7.95;3.95;;;;;;;26.71;43.96;101956.34;4996227;28;20478;-61
2021/07/09 07:26:36;;;;;;;9.18;4.65;;;;;;;26.77;44.00;101961.00;4996002;28;20036;-61
2021/07/09 07:29:02;;;;;;;7.40;4.95;;;;;;;26.86;44.42;101958.91;4996230;28;20041;-62
2021/07/09 07:31:28;;;;;;;7.25;5.25;;;;;;;26.94;44.44;101959.56;4995952;28;20018;-62
2021/07/09 07:33:53;;;;;;;6.82;4.57;;;;;;;27.03;43.34;101955.56;4995978;28;20026;-61
2021/07/09 07:36:18;;;;;;;8.68;5.20;;;;;;;27.14;43.47;101949.44;4995786;28;20109;-61
2021/07/09 07:38:45;;;;;;;10.38;4.70;;;;;;;27.56;43.10;101950.09;4996092;28;20455;-61
2021/07/09 07:41:11;;;;;;;12.77;5.32;;;;;;;27.78;43.33;101947.97;4996506;28;20026;-61
2021/07/09 07:43:36;;;;;;;8.68;4.85;;;;;;;27.85;43.37;101949.63;4995936;28;20479;-61
2021/07/09 07:46:03;;;;;;;10.98;4.93;;;;;;;27.92;43.12;101944.94;4995837;28;20031;-61
2021/07/09 07:48:28;;;;;;;9.43;4.70;;;;;;;28.04;42.55;101948.78;4995465;28;20511;-62
2021/07/09 07:50:53;;;;;;;6.82;4.35;;;;;;;28.09;42.64;101957.22;4995632;28;20054;-62
2021/07/09 07:53:19;;;;;;;10.15;4.90;;;;;;;28.17;43.24;101948.72;4996078;28;20076;-61
2021/07/09 07:55:44;;;;;;;7.45;4.97;;;;;;;28.26;42.47;101949.31;4995511;28;20022;-61
2021/07/09 07:58:09;;;;;;;7.75;4.63;;;;;;;28.33;42.56;101946.53;4996085;28;20041;-61
2021/07/09 08:00:35;;;;;;;8.98;5.55;;;;;;;28.36;43.16;101946.97;4995769;28;20026;-61
2021/07/09 08:03:00;;;;;;;8.23;4.40;;;;;;;28.44;42.46;101943.94;4995309;28;20029;-61
2021/07/09 08:05:26;;;;;;;10.13;4.72;;;;;;;28.52;42.85;101951.97;4995242;28;20030;-62
2021/07/09 08:07:51;;;;;;;8.70;4.90;;;;;;;28.57;42.85;101943.88;4995298;28;20060;-61
2021/07/09 08:10:17;;;;;;;7.25;4.38;;;;;;;28.66;42.38;101944.50;4995205;28;20380;-62
2021/07/09 08:12:42;;;;;;;11.15;4.72;;;;;;;28.78;42.21;101945.50;4995156;28;20034;-61
2021/07/09 08:15:08;;;;;;;10.15;5.20;;;;;;;28.83;42.34;101953.94;4994223;28;20033;-60
2021/07/09 08:17:33;;;;;;;10.55;4.65;;;;;;;28.90;42.35;101954.72;4995292;28;20475;-61
2021/07/09 08:19:59;;;;;;;9.52;4.53;;;;;;;28.99;42.47;101953.41;4995009;28;20034;-59
2021/07/09 08:22:24;;;;;;;7.97;4.45;;;;;;;29.09;41.38;101948.22;4995272;28;20093;-59
2021/07/09 08:24:49;;;;;;;9.73;4.82;;;;;;;29.22;41.35;101948.19;4994722;28;20353;-59
2021/07/09 08:27:15;;;;;;;9.30;4.90;;;;;;;29.32;41.30;101950.41;4995194;28;20054;-59
2021/07/09 08:29:42;;;;;;;12.85;5.25;;;;;;;29.44;42.02;101946.72;4995081;28;20050;-61
2021/07/09 08:32:08;;;;;;;7.57;4.20;;;;;;;29.56;41.05;101954.25;4994775;28;20026;-61
2021/07/09 08:34:33;;;;;;;7.50;4.75;;;;;;;29.79;40.97;101954.44;4995595;28;20109;-61
2021/07/09 08:36:59;;;;;;;9.40;4.57;;;;;;;30.02;40.94;101943.59;4995224;28;20034;-62
2021/07/09 08:39:24;;;;;;;8.80;4.97;;;;;;;30.15;40.90;101942.59;4995292;28;20058;-60
2021/07/09 08:41:51;;;;;;;10.60;4.65;;;;;;;30.39;40.63;101936.13;4994597;28;20150;-59
2021/07/09 08:44:16;;;;;;;6.35;4.40;;;;;;;30.51;40.33;101940.63;4994818;28;20490;-59
2021/07/09 08:46:42;;;;;;;9.40;4.55;;;;;;;30.62;40.12;101941.78;4994873;28;20085;-59
2021/07/09 08:49:10;;;;;;;8.68;4.65;;;;;;;30.90;40.12;101942.00;4994636;28;20101;-60
2021/07/09 08:51:35;;;;;;;8.98;4.57;;;;;;;31.13;39.85;101952.31;4993533;28;20034;-59
2021/07/09 08:54:01;;;;;;;8.18;4.43;;;;;;;31.40;39.47;101942.50;4994247;28;20057;-60
2021/07/09 08:56:26;;;;;;;7.50;4.05;;;;;;;31.53;39.04;101933.97;4994707;28;20030;-59
2021/07/09 08:58:52;;;;;;;6.05;3.95;;;;;;;31.71;38.74;101931.06;4994374;28;20100;-59
2021/07/09 09:01:17;;;;;;;10.18;4.65;;;;;;;31.86;38.17;101940.81;4994668;28;20041;-59
2021/07/09 09:03:42;;;;;;;7.95;4.10;;;;;;;32.01;38.38;101947.59;4994687;28;20459;-60
2021/07/09 09:06:14;;;;;;;6.78;4.15;;;;;;;32.23;38.13;101942.22;4994795;28;20053;-60
2021/07/09 09:08:40;;;;;;;6.20;4.00;;;;;;;32.26;38.29;101941.75;4994587;28;20391;-60
2021/07/09 09:11:05;;;;;;;7.95;3.85;;;;;;;32.37;37.89;101937.25;4994478;28;20042;-59
2021/07/09 09:13:32;;;;;;;5.88;4.10;;;;;;;32.42;38.45;101938.19;4994862;28;20130;-60
2021/07/09 09:16:01;;;;;;;6.60;3.65;;;;;;;32.41;38.60;101933.75;4994557;28;20022;-59
2021/07/09 09:18:35;;;;;;;6.05;3.83;;;;;;;32.43;38.42;101933.47;4994431;28;20026;-59
2021/07/09 09:21:11;;;;;;;5.45;3.95;;;;;;;32.52;37.24;101932.00;4994140;28;20339;-59
2021/07/09 09:23:52;;;;;;;8.25;4.57;;;;;;;32.87;36.40;101937.41;4994760;28;20026;-59
2021/07/09 09:26:45;;;;;;;7.03;3.30;;;;;;;33.04;36.52;101932.72;4994325;28;20415;-59
2021/07/09 09:29:25;;;;;;;6.05;4.53;;;;;;;33.02;37.19;101935.75;4994200;28;20431;-60
2021/07/09 09:31:55;;;;;;;9.10;3.97;;;;;;;33.10;37.22;101927.03;4994224;28;20041;-60
2021/07/09 09:34:37;;;;;;;8.05;4.28;;;;;;;32.90;37.22;101934.97;4994547;28;20030;-59
2021/07/09 09:37:02;;;;;;;;;;;;;;;32.61;37.34;101928.59;4994412;28;20026;-59
2021/07/09 09:39:28;;;;;;;8.15;3.88;;;;;;;32.23;37.75;101936.69;4993102;28;19937;-59
2021/07/09 09:42:18;;;;;;;5.60;4.00;;;;;;;31.86;38.49;101929.72;4994255;28;20038;-60
2021/07/09 09:44:45;;;;;;;5.43;4.30;;;;;;;31.64;38.60;101924.81;4994076;28;20050;-59
2021/07/09 09:47:12;;;;;;;8.55;4.10;;;;;;;31.52;38.82;101923.97;4994144;28;20030;-60
2021/07/09 09:49:37;;;;;;;8.18;3.90;;;;;;;31.43;38.99;101919.84;4993698;28;20050;-59
2021/07/09 09:52:03;;;;;;;6.18;3.63;;;;;;;31.32;38.54;101928.16;4976853;28;20471;-59
2021/07/09 09:54:33;;;;;;;8.98;4.05;;;;;;;31.22;38.89;101931.50;4997719;28;20022;-59
2021/07/09 09:56:59;;;;;;;14.77;4.57;;;;;;;31.13;38.81;101930.16;4997570;28;20022;-59
2021/07/09 09:59:25;;;;;;;14.05;4.82;;;;;;;31.00;38.81;101925.69;4997804;28;20122;-60
2021/07/09 10:02:03;;;;;;;7.25;5.00;;;;;;;31.10;38.59;101920.41;4997738;28;20157;-59
2021/07/09 10:04:29;;;;;;;8.50;5.13;;;;;;;31.19;38.28;101923.66;4996256;28;20022;-58
2021/07/09 10:06:56;;;;;;;7.47;5.43;;;;;;;31.41;38.13;101922.00;4997817;28;20022;-60
2021/07/09 10:09:22;;;;;;;7.57;5.38;;;;;;;31.79;38.01;101920.72;4997804;28;20038;-59
2021/07/09 10:11:48;;;;;;;7.68;4.72;;;;;;;32.11;37.39;101910.91;4996577;28;20112;-60
2021/07/09 10:14:15;;;;;;;7.88;5.57;;;;;;;32.52;36.51;101910.66;4997656;28;20494;-60
2021/07/09 10:16:42;;;;;;;6.35;4.20;;;;;;;33.15;36.59;101912.38;4997506;28;20087;-59
2021/07/09 10:19:09;;;;;;;9.68;5.65;;;;;;;33.37;35.39;101910.53;4996455;28;20364;-59
2021/07/09 10:21:37;;;;;;;7.32;4.78;;;;;;;33.49;36.32;101902.09;4996520;28;20026;-59
2021/07/09 10:24:04;;;;;;;6.28;4.28;;;;;;;33.63;35.01;101904.31;4997363;28;20057;-59
2021/07/09 10:26:29;;;;;;;9.35;5.25;;;;;;;33.75;35.87;101902.22;4997106;28;20020;-59
2021/07/09 10:29:20;;;;;;;10.25;5.22;;;;;;;33.94;35.21;101905.56;4997466;28;20072;-59
2021/07/09 10:31:48;;;;;;;7.22;5.50;;;;;;;33.91;34.92;101895.81;4997312;28;20076;-59
2021/07/09 10:34:30;;;;;;;8.73;5.32;;;;;;;34.02;35.79;101907.03;4996985;28;20064;-59
2021/07/09 10:37:08;;;;;;;8.35;5.32;;;;;;;34.07;35.33;101895.97;4997205;28;20041;-58
2021/07/09 10:39:47;;;;;;;11.88;5.88;;;;;;;34.17;35.31;101894.22;4996878;28;20058;-59
2021/07/09 10:42:27;;;;;;;8.27;5.25;;;;;;;34.09;35.32;101891.06;4997466;28;20132;-59
2021/07/09 10:45:08;;;;;;;7.57;5.22;;;;;;;34.10;35.16;101893.56;4996705;28;20037;-59
2021/07/09 10:47:43;;;;;;;7.10;5.68;;;;;;;34.04;34.50;101899.28;4997084;28;20037;-60
2021/07/09 10:50:30;;;;;;;10.90;5.78;;;;;;;34.07;34.89;101894.03;4996413;28;20514;-58
2021/07/09 10:52:57;;;;;;;9.30;5.85;;;;;;;34.26;34.41;101902.91;4996745;28;20046;-59
2021/07/09 10:55:26;;;;;;;9.93;7.20;;;;;;;34.39;34.87;101902.53;4996837;28;20023;-59
2021/07/09 10:58:07;;;;;;;10.25;7.28;;;;;;;34.52;34.05;101893.75;4996978;28;20378;-59
2021/07/09 11:00:54;;;;;;;11.27;6.43;;;;;;;34.67;34.51;101899.53;4996581;28;20038;-59
2021/07/09 11:03:37;;;;;;;9.95;8.27;;;;;;;34.43;34.26;101903.69;4996864;28;20026;-59
2021/07/09 11:06:05;;;;;;;10.25;7.93;;;;;;;34.19;33.79;101907.84;4996355;28;20026;-59
2021/07/09 11:08:33;;;;;;;13.23;7.57;;;;;;;34.07;34.81;101898.75;4996763;28;20029;-58
2021/07/09 11:11:12;;;;;;;10.65;7.22;;;;;;;33.88;34.73;101907.44;4996372;28;20064;-59
2021/07/09 11:13:44;;;;;;;14.68;8.52;;;;;;;33.72;34.31;101907.47;4996917;28;20096;-59
2021/07/09 11:16:25;;;;;;;12.20;8.18;;;;;;;33.56;35.35;101914.72;4996282;28;20041;-58
2021/07/09 11:18:59;;;;;;;9.10;7.63;;;;;;;33.44;34.28;101905.66;4996517;28;20033;-58
2021/07/09 11:21:34;;;;;;;10.30;7.95;;;;;;;33.34;34.95;101906.31;4996411;28;20152;-59
2021/07/09 11:24:05;;;;;;;10.90;7.40;;;;;;;33.28;34.69;101900.94;4996407;28;20022;-60